sensor_id;sensor_type;location;lat;lon;timestamp;pressure;altitude;pressure_sealevel;temperature;humidity
8280;BME280;8335;42.646;23.380;2022-12-26T00:00:28;95280.91;;;4.28;91.68
8280;BME280;8335;42.646;23.380;2022-12-26T00:02:55;95280.16;;;4.23;92.06
8280;BME280;8335;42.646;23.380;2022-12-26T00:05:22;95281.84;;;4.22;92.02
8280;BME280;8335;42.646;23.380;2022-12-26T00:07:50;95276.84;;;4.19;92.16
8280;BME280;8335;42.646;23.380;2022-12-26T00:10:17;95281.03;;;4.19;92.01
8280;BME280;8335;42.646;23.380;2022-12-26T00:12:44;95279.34;;;4.22;91.80
8280;BME280;8335;42.646;23.380;2022-12-26T00:15:10;95275.19;;;4.17;91.78
8280;BME280;8335;42.646;23.380;2022-12-26T00:17:37;95282.75;;;4.17;91.70
8280;BME280;8335;42.646;23.380;2022-12-26T00:20:05;95287.84;;;4.15;91.80
8280;BME280;8335;42.646;23.380;2022-12-26T00:22:33;95293.69;;;4.16;91.58
8280;BME280;8335;42.646;23.380;2022-12-26T00:25:01;95292.88;;;4.15;91.89
8280;BME280;8335;42.646;23.380;2022-12-26T00:27:28;95293.69;;;4.14;91.64
8280;BME280;8335;42.646;23.380;2022-12-26T00:29:54;95299.59;;;4.13;91.85
8280;BME280;8335;42.646;23.380;2022-12-26T00:32:21;95296.25;;;4.12;91.42
8280;BME280;8335;42.646;23.380;2022-12-26T00:34:48;95293.81;;;4.08;92.13
8280;BME280;8335;42.646;23.380;2022-12-26T00:37:15;95286.31;;;4.03;92.13
8280;BME280;8335;42.646;23.380;2022-12-26T00:39:41;95272.06;;;4.01;91.83
8280;BME280;8335;42.646;23.380;2022-12-26T00:42:09;95283.72;;;4.06;91.57
8280;BME280;8335;42.646;23.380;2022-12-26T00:44:36;95294.63;;;4.07;91.97
8280;BME280;8335;42.646;23.380;2022-12-26T00:47:03;95301.47;;;4.00;92.08
8280;BME280;8335;42.646;23.380;2022-12-26T00:49:30;95302.34;;;3.96;92.29
8280;BME280;8335;42.646;23.380;2022-12-26T00:51:56;95304.03;;;3.97;91.68
8280;BME280;8335;42.646;23.380;2022-12-26T00:54:23;95304.88;;;3.96;92.08
8280;BME280;8335;42.646;23.380;2022-12-26T00:56:50;95294.78;;;3.98;92.15
8280;BME280;8335;42.646;23.380;2022-12-26T00:59:18;95293.06;;;4.00;91.68
8280;BME280;8335;42.646;23.380;2022-12-26T01:01:45;95299.72;;;4.04;91.82
8280;BME280;8335;42.646;23.380;2022-12-26T01:04:11;95288.03;;;4.01;92.34
8280;BME280;8335;42.646;23.380;2022-12-26T01:06:38;95304.78;;;4.04;92.27
8280;BME280;8335;42.646;23.380;2022-12-26T01:09:05;95303.13;;;4.00;92.54
8280;BME280;8335;42.646;23.380;2022-12-26T01:11:32;95301.47;;;3.99;92.96
8280;BME280;8335;42.646;23.380;2022-12-26T01:14:10;95273.28;;;3.72;92.98
8280;BME280;8335;42.646;23.380;2022-12-26T01:16:39;95302.47;;;3.89;93.12
8280;BME280;8335;42.646;23.380;2022-12-26T01:19:06;95310.91;;;3.86;92.87
8280;BME280;8335;42.646;23.380;2022-12-26T01:21:33;95322.63;;;3.87;93.10
8280;BME280;8335;42.646;23.380;2022-12-26T01:24:00;95216.06;;;3.17;93.16
8280;BME280;8335;42.646;23.380;2022-12-26T01:26:26;95326.97;;;3.76;93.55
8280;BME280;8335;42.646;23.380;2022-12-26T01:28:53;95331.13;;;3.78;93.82
8280;BME280;8335;42.646;23.380;2022-12-26T01:31:20;95331.22;;;3.71;94.77
8280;BME280;8335;42.646;23.380;2022-12-26T01:33:49;95325.38;;;3.69;94.57
8280;BME280;8335;42.646;23.380;2022-12-26T01:36:16;95334.63;;;3.68;94.82
8280;BME280;8335;42.646;23.380;2022-12-26T01:38:44;95323.72;;;3.66;94.29
8280;BME280;8335;42.646;23.380;2022-12-26T01:41:11;95330.53;;;3.56;95.34
8280;BME280;8335;42.646;23.380;2022-12-26T01:43:54;95323.91;;;3.51;95.75
8280;BME280;8335;42.646;23.380;2022-12-26T01:46:26;95319.72;;;3.48;95.86
8280;BME280;8335;42.646;23.380;2022-12-26T01:48:57;95310.53;;;3.46;96.31
8280;BME280;8335;42.646;23.380;2022-12-26T01:51:29;95312.22;;;3.42;95.90
8280;BME280;8335;42.646;23.380;2022-12-26T01:53:57;95309.75;;;3.41;96.46
8280;BME280;8335;42.646;23.380;2022-12-26T01:56:28;95310.69;;;3.32;95.93
8280;BME280;8335;42.646;23.380;2022-12-26T01:59:02;95318.25;;;3.27;96.10
8280;BME280;8335;42.646;23.380;2022-12-26T02:01:32;95314.97;;;3.21;96.78
8280;BME280;8335;42.646;23.380;2022-12-26T02:04:01;95316.75;;;3.13;97.79
8280;BME280;8335;42.646;23.380;2022-12-26T02:06:48;95304.16;;;3.13;97.65
8280;BME280;8335;42.646;23.380;2022-12-26T02:09:15;95305.00;;;3.13;98.03
8280;BME280;8335;42.646;23.380;2022-12-26T02:11:45;95305.91;;;3.08;97.77
8280;BME280;8335;42.646;23.380;2022-12-26T02:14:15;95290.81;;;3.04;98.26
8280;BME280;8335;42.646;23.380;2022-12-26T02:16:42;95290.81;;;3.04;98.12
8280;BME280;8335;42.646;23.380;2022-12-26T02:19:21;95289.16;;;3.03;98.43
8280;BME280;8335;42.646;23.380;2022-12-26T02:22:13;95289.25;;;2.94;99.09
8280;BME280;8335;42.646;23.380;2022-12-26T02:25:07;95283.44;;;2.89;99.67
8280;BME280;8335;42.646;23.380;2022-12-26T02:27:57;95286.81;;;2.85;99.84
8280;BME280;8335;42.646;23.380;2022-12-26T02:30:41;95275.94;;;2.83;99.46
8280;BME280;8335;42.646;23.380;2022-12-26T02:33:31;95277.63;;;2.83;99.76
8280;BME280;8335;42.646;23.380;2022-12-26T02:36:16;95283.47;;;2.83;99.70
8280;BME280;8335;42.646;23.380;2022-12-26T02:38:54;95275.09;;;2.84;100.00
8280;BME280;8335;42.646;23.380;2022-12-26T02:41:28;95212.66;;;2.38;99.84
8280;BME280;8335;42.646;23.380;2022-12-26T02:44:05;95269.31;;;2.71;99.11
8280;BME280;8335;42.646;23.380;2022-12-26T02:46:59;95277.59;;;2.84;99.12
8280;BME280;8335;42.646;23.380;2022-12-26T02:49:39;95282.69;;;2.80;99.74
8280;BME280;8335;42.646;23.380;2022-12-26T02:52:29;95283.47;;;2.83;99.39
8280;BME280;8335;42.646;23.380;2022-12-26T02:55:22;95284.38;;;2.79;99.56
8280;BME280;8335;42.646;23.380;2022-12-26T02:58:16;95284.25;;;2.90;98.68
8280;BME280;8335;42.646;23.380;2022-12-26T03:01:05;95275.00;;;2.92;98.78
8280;BME280;8335;42.646;23.380;2022-12-26T03:03:54;95285.09;;;2.90;98.15
8280;BME280;8335;42.646;23.380;2022-12-26T03:06:42;95272.50;;;2.90;98.21
8280;BME280;8335;42.646;23.380;2022-12-26T03:09:31;95278.34;;;2.95;97.82
8280;BME280;8335;42.646;23.380;2022-12-26T03:12:28;95270.81;;;2.94;98.05
8280;BME280;8335;42.646;23.380;2022-12-26T03:15:18;95275.84;;;2.92;98.13
8280;BME280;8335;42.646;23.380;2022-12-26T03:17:49;95290.91;;;2.95;99.24
8280;BME280;8335;42.646;23.380;2022-12-26T03:20:20;95281.75;;;2.88;99.46
8280;BME280;8335;42.646;23.380;2022-12-26T03:22:52;95264.31;;;2.70;100.00
8280;BME280;8335;42.646;23.380;2022-12-26T03:25:25;95285.22;;;2.80;100.00
8280;BME280;8335;42.646;23.380;2022-12-26T03:28:13;95291.16;;;2.68;100.00
8280;BME280;8335;42.646;23.380;2022-12-26T03:30:40;95303.00;;;2.54;100.00
8280;BME280;8335;42.646;23.380;2022-12-26T03:33:15;95304.03;;;2.30;100.00
8280;BME280;8335;42.646;23.380;2022-12-26T03:36:11;95291.59;;;2.07;100.00
8280;BME280;8335;42.646;23.380;2022-12-26T03:38:45;95300.81;;;2.08;100.00
8280;BME280;8335;42.646;23.380;2022-12-26T03:41:25;95307.47;;;2.16;100.00
8280;BME280;8335;42.646;23.380;2022-12-26T03:44:19;95309.09;;;2.20;100.00
8280;BME280;8335;42.646;23.380;2022-12-26T03:47:14;95314.13;;;2.19;100.00
8280;BME280;8335;42.646;23.380;2022-12-26T03:50:03;95284.16;;;1.96;100.00
8280;BME280;8335;42.646;23.380;2022-12-26T03:52:56;95318.41;;;2.05;100.00
8280;BME280;8335;42.646;23.380;2022-12-26T03:55:51;95316.75;;;2.04;100.00
8280;BME280;8335;42.646;23.380;2022-12-26T03:58:42;95305.03;;;2.00;100.00
8280;BME280;8335;42.646;23.380;2022-12-26T04:01:29;95310.03;;;2.04;100.00
8280;BME280;8335;42.646;23.380;2022-12-26T04:04:16;95306.69;;;2.08;100.00
8280;BME280;8335;42.646;23.380;2022-12-26T04:07:08;95319.28;;;2.01;100.00
8280;BME280;8335;42.646;23.380;2022-12-26T04:09:58;95318.47;;;1.94;100.00
8280;BME280;8335;42.646;23.380;2022-12-26T04:12:46;95305.09;;;1.93;100.00
8280;BME280;8335;42.646;23.380;2022-12-26T04:15:39;95299.22;;;1.95;100.00
8280;BME280;8335;42.646;23.380;2022-12-26T04:18:30;95303.34;;;2.03;100.00
8280;BME280;8335;42.646;23.380;2022-12-26T04:21:20;95286.63;;;1.99;100.00
8280;BME280;8335;42.646;23.380;2022-12-26T04:24:12;95297.47;;;2.04;100.00
8280;BME280;8335;42.646;23.380;2022-12-26T04:27:02;95264.94;;;1.89;100.00
8280;BME280;8335;42.646;23.380;2022-12-26T04:29:47;95291.59;;;2.07;100.00
8280;BME280;8335;42.646;23.380;2022-12-26T04:32:34;95294.13;;;2.05;100.00
8280;BME280;8335;42.646;23.380;2022-12-26T04:35:25;95291.66;;;1.99;100.00
8280;BME280;8335;42.646;23.380;2022-12-26T04:38:14;95288.31;;;1.97;100.00
8280;BME280;8335;42.646;23.380;2022-12-26T04:41:01;95290.81;;;1.99;100.00
8280;BME280;8335;42.646;23.380;2022-12-26T04:43:47;95293.31;;;1.99;100.00
8280;BME280;8335;42.646;23.380;2022-12-26T04:46:35;95298.34;;;2.03;100.00
8280;BME280;8335;42.646;23.380;2022-12-26T04:49:04;95286.63;;;2.02;100.00
8280;BME280;8335;42.646;23.380;2022-12-26T04:51:49;95304.16;;;2.10;100.00
8280;BME280;8335;42.646;23.380;2022-12-26T04:54:16;95315.84;;;2.15;100.00
8280;BME280;8335;42.646;23.380;2022-12-26T04:56:43;95316.66;;;2.19;100.00
8280;BME280;8335;42.646;23.380;2022-12-26T04:59:11;95309.13;;;2.17;100.00
8280;BME280;8335;42.646;23.380;2022-12-26T05:01:38;95301.63;;;2.11;100.00
8280;BME280;8335;42.646;23.380;2022-12-26T05:04:22;95317.47;;;2.21;100.00
8280;BME280;8335;42.646;23.380;2022-12-26T05:07:13;95314.13;;;2.22;100.00
8280;BME280;8335;42.646;23.380;2022-12-26T05:09:59;95316.63;;;2.20;100.00
8280;BME280;8335;42.646;23.380;2022-12-26T05:12:26;95315.81;;;2.23;100.00
8280;BME280;8335;42.646;23.380;2022-12-26T05:14:54;95318.34;;;2.22;100.00
8280;BME280;8335;42.646;23.380;2022-12-26T05:17:21;95320.78;;;2.26;100.00
8280;BME280;8335;42.646;23.380;2022-12-26T05:20:06;95327.50;;;2.24;100.00
8280;BME280;8335;42.646;23.380;2022-12-26T05:22:51;95330.00;;;2.30;100.00
8280;BME280;8335;42.646;23.380;2022-12-26T05:25:36;95332.50;;;2.30;100.00
8280;BME280;8335;42.646;23.380;2022-12-26T05:28:22;95330.84;;;2.29;100.00
8280;BME280;8335;42.646;23.380;2022-12-26T05:31:10;95348.38;;;2.35;100.00
8280;BME280;8335;42.646;23.380;2022-12-26T05:33:37;95350.06;;;2.36;100.00
8280;BME280;8335;42.646;23.380;2022-12-26T05:36:23;95354.25;;;2.36;100.00
8280;BME280;8335;42.646;23.380;2022-12-26T05:38:51;95352.56;;;2.35;100.00
8280;BME280;8335;42.646;23.380;2022-12-26T05:41:18;95356.81;;;2.30;100.00
8280;BME280;8335;42.646;23.380;2022-12-26T05:43:45;95339.25;;;2.22;100.00
8280;BME280;8335;42.646;23.380;2022-12-26T05:46:13;95337.56;;;2.26;100.00
8280;BME280;8335;42.646;23.380;2022-12-26T05:48:40;95340.00;;;2.33;100.00
8280;BME280;8335;42.646;23.380;2022-12-26T05:51:07;95336.66;;;2.34;100.00
8280;BME280;8335;42.646;23.380;2022-12-26T05:53:35;95342.50;;;2.38;100.00
8280;BME280;8335;42.646;23.380;2022-12-26T05:56:02;95347.53;;;2.35;100.00
8280;BME280;8335;42.646;23.380;2022-12-26T05:58:30;95313.34;;;2.11;100.00
8280;BME280;8335;42.646;23.380;2022-12-26T06:01:05;95343.44;;;2.25;100.00
8280;BME280;8335;42.646;23.380;2022-12-26T06:03:33;95345.91;;;2.29;100.00
8280;BME280;8335;42.646;23.380;2022-12-26T06:06:01;95348.44;;;2.29;100.00
8280;BME280;8335;42.646;23.380;2022-12-26T06:08:27;95352.63;;;2.29;100.00
8280;BME280;8335;42.646;23.380;2022-12-26T06:10:54;95343.41;;;2.26;100.00
8280;BME280;8335;42.646;23.380;2022-12-26T06:13:21;95346.78;;;2.20;100.00
8280;BME280;8335;42.646;23.380;2022-12-26T06:15:48;95348.44;;;2.26;100.00
8280;BME280;8335;42.646;23.380;2022-12-26T06:18:15;95350.84;;;2.46;100.00
8280;BME280;8335;42.646;23.380;2022-12-26T06:20:43;95354.72;;;2.87;100.00
8280;BME280;8335;42.646;23.380;2022-12-26T06:23:10;95356.00;;;3.30;100.00
8280;BME280;8335;42.646;23.380;2022-12-26T06:25:36;95362.22;;;3.79;100.00
8280;BME280;8335;42.646;23.380;2022-12-26T06:28:03;95359.09;;;4.25;100.00
8280;BME280;8335;42.646;23.380;2022-12-26T06:30:30;95372.69;;;4.75;97.52
8280;BME280;8335;42.646;23.380;2022-12-26T06:32:57;95371.00;;;5.26;94.74
8280;BME280;8335;42.646;23.380;2022-12-26T06:35:23;95380.91;;;5.83;92.08
8280;BME280;8335;42.646;23.380;2022-12-26T06:37:52;95375.50;;;6.45;89.06
8280;BME280;8335;42.646;23.380;2022-12-26T06:40:18;95384.31;;;7.03;85.34
8280;BME280;8335;42.646;23.380;2022-12-26T06:42:45;95373.28;;;7.39;81.56
8280;BME280;8335;42.646;23.380;2022-12-26T06:45:12;95389.75;;;7.88;80.14
8280;BME280;8335;42.646;23.380;2022-12-26T06:47:39;95387.69;;;8.32;78.70
8280;BME280;8335;42.646;23.380;2022-12-26T06:50:06;95384.88;;;8.71;76.83
8280;BME280;8335;42.646;23.380;2022-12-26T06:52:33;95395.66;;;9.05;73.12
8280;BME280;8335;42.646;23.380;2022-12-26T06:55:01;95397.13;;;9.13;70.30
8280;BME280;8335;42.646;23.380;2022-12-26T06:57:28;95403.56;;;9.49;69.98
8280;BME280;8335;42.646;23.380;2022-12-26T06:59:55;95402.44;;;9.83;67.98
8280;BME280;8335;42.646;23.380;2022-12-26T07:02:21;95406.31;;;10.18;66.92
8280;BME280;8335;42.646;23.380;2022-12-26T07:04:48;95405.13;;;10.52;64.92
8280;BME280;8335;42.646;23.380;2022-12-26T07:07:15;95411.44;;;10.87;62.19
8280;BME280;8335;42.646;23.380;2022-12-26T07:09:42;95400.34;;;11.32;60.83
8280;BME280;8335;42.646;23.380;2022-12-26T07:12:10;95407.91;;;11.75;59.23
8280;BME280;8335;42.646;23.380;2022-12-26T07:14:37;95420.41;;;12.22;57.68
8280;BME280;8335;42.646;23.380;2022-12-26T07:17:03;95422.47;;;12.72;57.12
8280;BME280;8335;42.646;23.380;2022-12-26T07:19:30;95414.88;;;13.07;55.36
8280;BME280;8335;42.646;23.380;2022-12-26T07:21:57;95431.75;;;13.30;52.36
8280;BME280;8335;42.646;23.380;2022-12-26T07:24:23;95426.47;;;13.50;51.78
8280;BME280;8335;42.646;23.380;2022-12-26T07:26:50;95423.03;;;13.68;51.68
8280;BME280;8335;42.646;23.380;2022-12-26T07:29:18;95432.84;;;13.95;50.80
8280;BME280;8335;42.646;23.380;2022-12-26T07:31:46;95422.72;;;14.09;50.21
8280;BME280;8335;42.646;23.380;2022-12-26T07:34:13;95429.41;;;14.12;49.68
8280;BME280;8335;42.646;23.380;2022-12-26T07:36:40;95437.19;;;14.10;49.39
8280;BME280;8335;42.646;23.380;2022-12-26T07:39:07;95431.19;;;13.94;49.84
8280;BME280;8335;42.646;23.380;2022-12-26T07:41:34;95426.59;;;14.00;49.68
8280;BME280;8335;42.646;23.380;2022-12-26T07:44:20;95419.41;;;14.07;49.35
8280;BME280;8335;42.646;23.380;2022-12-26T07:46:46;95421.97;;;13.90;50.25
8280;BME280;8335;42.646;23.380;2022-12-26T07:49:13;95412.16;;;13.65;51.29
8280;BME280;8335;42.646;23.380;2022-12-26T07:51:41;95412.97;;;13.65;51.35
8280;BME280;8335;42.646;23.380;2022-12-26T07:54:08;95409.88;;;13.76;51.29
8280;BME280;8335;42.646;23.380;2022-12-26T07:56:35;95419.78;;;13.99;50.77
8280;BME280;8335;42.646;23.380;2022-12-26T07:59:02;95412.13;;;14.32;50.26
8280;BME280;8335;42.646;23.380;2022-12-26T08:01:30;95411.38;;;14.64;49.78
8280;BME280;8335;42.646;23.380;2022-12-26T08:03:57;95411.72;;;14.89;49.41
8280;BME280;8335;42.646;23.380;2022-12-26T08:06:24;95408.09;;;14.93;49.20
8280;BME280;8335;42.646;23.380;2022-12-26T08:08:50;95402.19;;;15.07;48.32
8280;BME280;8335;42.646;23.380;2022-12-26T08:11:20;95389.47;;;14.74;49.49
8280;BME280;8335;42.646;23.380;2022-12-26T08:13:48;95399.56;;;14.61;49.32
8280;BME280;8335;42.646;23.380;2022-12-26T08:16:14;95397.91;;;13.94;50.81
8280;BME280;8335;42.646;23.380;2022-12-26T08:18:43;95360.94;;;13.82;51.43
8280;BME280;8335;42.646;23.380;2022-12-26T08:21:11;95406.34;;;14.29;50.12
8280;BME280;8335;42.646;23.380;2022-12-26T08:23:38;95405.75;;;14.07;50.49
8280;BME280;8335;42.646;23.380;2022-12-26T08:26:05;95409.78;;;14.28;50.61
8280;BME280;8335;42.646;23.380;2022-12-26T08:28:32;95403.84;;;14.61;49.81
8280;BME280;8335;42.646;23.380;2022-12-26T08:31:03;95412.97;;;14.66;49.50
8280;BME280;8335;42.646;23.380;2022-12-26T08:33:30;95419.75;;;14.83;49.27
8280;BME280;8335;42.646;23.380;2022-12-26T08:36:01;95409.47;;;14.99;49.11
8280;BME280;8335;42.646;23.380;2022-12-26T08:38:28;95415.28;;;15.02;49.30
8280;BME280;8335;42.646;23.380;2022-12-26T08:40:55;95412.94;;;15.29;48.79
8280;BME280;8335;42.646;23.380;2022-12-26T08:43:22;95415.72;;;15.40;48.42
8280;BME280;8335;42.646;23.380;2022-12-26T08:45:56;95407.16;;;15.26;48.43
8280;BME280;8335;42.646;23.380;2022-12-26T08:48:23;95418.41;;;15.39;48.52
8280;BME280;8335;42.646;23.380;2022-12-26T08:50:55;95404.50;;;15.43;48.26
8280;BME280;8335;42.646;23.380;2022-12-26T08:53:23;95398.53;;;15.27;48.67
8280;BME280;8335;42.646;23.380;2022-12-26T08:55:50;95407.06;;;15.27;48.84
8280;BME280;8335;42.646;23.380;2022-12-26T08:58:17;95398.66;;;15.09;49.50
8280;BME280;8335;42.646;23.380;2022-12-26T09:00:43;95386.19;;;14.88;49.89
8280;BME280;8335;42.646;23.380;2022-12-26T09:03:10;95394.69;;;14.88;50.41
8280;BME280;8335;42.646;23.380;2022-12-26T09:05:37;95391.69;;;15.11;50.21
8280;BME280;8335;42.646;23.380;2022-12-26T09:08:04;95393.19;;;15.00;50.08
8280;BME280;8335;42.646;23.380;2022-12-26T09:10:32;95388.31;;;14.95;50.51
8280;BME280;8335;42.646;23.380;2022-12-26T09:12:59;95389.41;;;14.75;51.00
8280;BME280;8335;42.646;23.380;2022-12-26T09:15:26;95384.84;;;14.65;51.29
8280;BME280;8335;42.646;23.380;2022-12-26T09:17:53;95386.41;;;14.67;51.54
8280;BME280;8335;42.646;23.380;2022-12-26T09:20:20;95384.50;;;14.71;51.69
8280;BME280;8335;42.646;23.380;2022-12-26T09:22:46;95391.72;;;14.80;51.07
8280;BME280;8335;42.646;23.380;2022-12-26T09:25:16;95384.94;;;14.79;51.08
8280;BME280;8335;42.646;23.380;2022-12-26T09:27:45;95391.22;;;14.73;51.41
8280;BME280;8335;42.646;23.380;2022-12-26T09:30:12;95379.72;;;14.96;50.91
8280;BME280;8335;42.646;23.380;2022-12-26T09:32:39;95384.41;;;15.04;50.45
8280;BME280;8335;42.646;23.380;2022-12-26T09:35:07;95377.38;;;14.92;50.58
8280;BME280;8335;42.646;23.380;2022-12-26T09:37:33;95374.91;;;15.06;50.58
8280;BME280;8335;42.646;23.380;2022-12-26T09:40:00;95377.41;;;15.37;49.92
8280;BME280;8335;42.646;23.380;2022-12-26T09:42:34;95355.25;;;15.66;48.71
8280;BME280;8335;42.646;23.380;2022-12-26T09:45:11;95367.69;;;16.31;48.22
8280;BME280;8335;42.646;23.380;2022-12-26T09:47:45;95383.84;;;16.47;46.83
8280;BME280;8335;42.646;23.380;2022-12-26T09:50:23;95377.38;;;16.83;46.07
8280;BME280;8335;42.646;23.380;2022-12-26T09:52:53;95375.88;;;17.08;45.67
8280;BME280;8335;42.646;23.380;2022-12-26T09:55:29;95376.31;;;17.27;45.38
8280;BME280;8335;42.646;23.380;2022-12-26T09:58:14;95370.03;;;17.58;44.00
8280;BME280;8335;42.646;23.380;2022-12-26T10:00:50;95375.13;;;17.85;42.82
8280;BME280;8335;42.646;23.380;2022-12-26T10:03:17;95363.59;;;17.78;42.95
8280;BME280;8335;42.646;23.380;2022-12-26T10:05:56;95368.34;;;17.84;43.15
8280;BME280;8335;42.646;23.380;2022-12-26T10:11:26;95349.81;;;18.04;42.54
8280;BME280;8335;42.646;23.380;2022-12-26T10:14:01;95357.34;;;17.95;42.48
8280;BME280;8335;42.646;23.380;2022-12-26T10:16:40;95351.13;;;17.97;42.36
8280;BME280;8335;42.646;23.380;2022-12-26T10:19:23;95345.16;;;18.09;41.88
8280;BME280;8335;42.646;23.380;2022-12-26T10:21:58;95341.34;;;18.15;41.54
8280;BME280;8335;42.646;23.380;2022-12-26T10:24:33;95337.84;;;18.03;42.57
8280;BME280;8335;42.646;23.380;2022-12-26T10:27:11;95333.50;;;18.04;42.36
8280;BME280;8335;42.646;23.380;2022-12-26T10:29:41;95331.03;;;18.15;42.81
8280;BME280;8335;42.646;23.380;2022-12-26T10:32:13;95328.88;;;18.22;42.26
8280;BME280;8335;42.646;23.380;2022-12-26T10:34:44;95323.72;;;18.22;42.10
8280;BME280;8335;42.646;23.380;2022-12-26T10:37:15;95329.59;;;18.11;42.06
8280;BME280;8335;42.646;23.380;2022-12-26T10:39:47;95328.88;;;18.22;41.83
8280;BME280;8335;42.646;23.380;2022-12-26T10:42:22;95321.97;;;17.97;41.71
8280;BME280;8335;42.646;23.380;2022-12-26T10:44:49;95318.63;;;17.56;42.64
8280;BME280;8335;42.646;23.380;2022-12-26T10:47:25;95311.97;;;17.27;43.53
8280;BME280;8335;42.646;23.380;2022-12-26T10:49:53;95315.25;;;17.16;44.19
8280;BME280;8335;42.646;23.380;2022-12-26T10:52:26;95314.69;;;16.98;44.01
8280;BME280;8335;42.646;23.380;2022-12-26T10:54:57;95303.88;;;16.93;44.58
8280;BME280;8335;42.646;23.380;2022-12-26T10:57:29;95296.28;;;16.77;44.69
8280;BME280;8335;42.646;23.380;2022-12-26T10:59:57;95311.00;;;16.75;45.19
8280;BME280;8335;42.646;23.380;2022-12-26T11:02:27;95278.09;;;16.39;45.43
8280;BME280;8335;42.646;23.380;2022-12-26T11:05:06;95307.47;;;16.21;46.67
8280;BME280;8335;42.646;23.380;2022-12-26T11:07:35;95300.34;;;15.98;46.94
8280;BME280;8335;42.646;23.380;2022-12-26T11:10:05;95268.13;;;15.78;47.18
8280;BME280;8335;42.646;23.380;2022-12-26T11:12:40;95291.19;;;15.93;47.28
8280;BME280;8335;42.646;23.380;2022-12-26T11:15:18;95288.22;;;15.71;47.65
8280;BME280;8335;42.646;23.380;2022-12-26T11:17:48;95283.91;;;15.72;47.69
8280;BME280;8335;42.646;23.380;2022-12-26T11:20:29;95276.91;;;15.59;47.48
8280;BME280;8335;42.646;23.380;2022-12-26T11:25:57;95271.03;;;15.43;47.68
8280;BME280;8335;42.646;23.380;2022-12-26T11:28:30;95274.91;;;15.20;48.03
8280;BME280;8335;42.646;23.380;2022-12-26T11:30:59;95271.03;;;15.13;48.47
8280;BME280;8335;42.646;23.380;2022-12-26T11:33:32;95243.50;;;14.86;48.71
8280;BME280;8335;42.646;23.380;2022-12-26T11:36:08;95266.72;;;15.13;48.45
8280;BME280;8335;42.646;23.380;2022-12-26T11:38:46;95267.97;;;15.22;48.36
8280;BME280;8335;42.646;23.380;2022-12-26T11:41:16;95265.50;;;15.35;48.03
8280;BME280;8335;42.646;23.380;2022-12-26T11:44:02;95259.03;;;15.44;47.50
8280;BME280;8335;42.646;23.380;2022-12-26T11:46:36;95259.94;;;15.57;47.72
8280;BME280;8335;42.646;23.380;2022-12-26T11:49:06;95259.09;;;15.42;47.58
8280;BME280;8335;42.646;23.380;2022-12-26T11:51:46;95231.94;;;15.09;46.75
8280;BME280;8335;42.646;23.380;2022-12-26T11:54:22;95235.31;;;15.10;47.13
8280;BME280;8335;42.646;23.380;2022-12-26T11:57:00;95252.59;;;15.06;47.37
8280;BME280;8335;42.646;23.380;2022-12-26T11:59:27;95255.09;;;15.08;47.86
8280;BME280;8335;42.646;23.380;2022-12-26T12:02:16;95246.00;;;14.72;48.35
8280;BME280;8335;42.646;23.380;2022-12-26T12:04:46;95242.72;;;14.39;49.67
8280;BME280;8335;42.646;23.380;2022-12-26T12:07:24;95237.66;;;14.21;50.17
8280;BME280;8335;42.646;23.380;2022-12-26T12:10:00;95237.16;;;13.99;51.13
8280;BME280;8335;42.646;23.380;2022-12-26T12:12:33;95231.72;;;14.05;51.13
8280;BME280;8335;42.646;23.380;2022-12-26T12:15:09;95228.56;;;14.00;51.27
8280;BME280;8335;42.646;23.380;2022-12-26T12:17:47;95227.00;;;13.97;51.99
8280;BME280;8335;42.646;23.380;2022-12-26T12:20:26;95224.94;;;13.88;51.50
8280;BME280;8335;42.646;23.380;2022-12-26T12:23:14;95223.41;;;13.68;52.16
8280;BME280;8335;42.646;23.380;2022-12-26T12:25:55;95222.88;;;13.46;53.58
8280;BME280;8335;42.646;23.380;2022-12-26T12:28:56;95230.94;;;13.21;54.30
8280;BME280;8335;42.646;23.380;2022-12-26T12:31:37;95224.34;;;12.82;55.66
8280;BME280;8335;42.646;23.380;2022-12-26T12:34:17;95218.56;;;12.79;56.12
8280;BME280;8335;42.646;23.380;2022-12-26T12:37:01;95221.00;;;12.63;56.80
8280;BME280;8335;42.646;23.380;2022-12-26T12:39:41;95209.13;;;12.45;56.35
8280;BME280;8335;42.646;23.380;2022-12-26T12:42:23;95212.50;;;12.45;56.26
8280;BME280;8335;42.646;23.380;2022-12-26T12:45:08;95209.22;;;12.43;56.14
8280;BME280;8335;42.646;23.380;2022-12-26T12:47:45;95221.75;;;12.48;55.94
8280;BME280;8335;42.646;23.380;2022-12-26T12:50:22;95225.72;;;12.36;56.45
8280;BME280;8335;42.646;23.380;2022-12-26T12:53:01;95224.91;;;12.17;56.19
8280;BME280;8335;42.646;23.380;2022-12-26T12:55:39;95220.16;;;12.09;56.07
8280;BME280;8335;42.646;23.380;2022-12-26T12:58:16;95218.91;;;11.99;56.35
8280;BME280;8335;42.646;23.380;2022-12-26T13:00:52;95224.00;;;11.99;56.56
8280;BME280;8335;42.646;23.380;2022-12-26T13:03:26;95216.63;;;11.93;57.18
8280;BME280;8335;42.646;23.380;2022-12-26T13:06:00;95224.50;;;11.88;57.66
8280;BME280;8335;42.646;23.380;2022-12-26T13:08:36;95224.63;;;11.85;58.49
8280;BME280;8335;42.646;23.380;2022-12-26T13:11:07;95219.41;;;11.88;57.83
8280;BME280;8335;42.646;23.380;2022-12-26T13:13:39;95219.34;;;11.90;57.95
8280;BME280;8335;42.646;23.380;2022-12-26T13:16:11;95215.31;;;11.84;58.50
8280;BME280;8335;42.646;23.380;2022-12-26T13:18:44;95210.31;;;11.82;59.09
8280;BME280;8335;42.646;23.380;2022-12-26T13:21:14;95206.50;;;11.72;59.55
8280;BME280;8335;42.646;23.380;2022-12-26T13:23:46;95209.16;;;11.50;60.65
8280;BME280;8335;42.646;23.380;2022-12-26T13:26:35;95221.78;;;11.33;61.46
8280;BME280;8335;42.646;23.380;2022-12-26T13:29:06;95168.88;;;10.79;62.57
8280;BME280;8335;42.646;23.380;2022-12-26T13:31:38;95217.25;;;11.00;62.88
8280;BME280;8335;42.646;23.380;2022-12-26T13:34:07;95216.84;;;11.10;62.40
8280;BME280;8335;42.646;23.380;2022-12-26T13:36:41;95213.22;;;11.15;61.77
8280;BME280;8335;42.646;23.380;2022-12-26T13:39:37;95210.53;;;11.18;62.01
8280;BME280;8335;42.646;23.380;2022-12-26T13:42:33;95212.31;;;11.16;61.75
8280;BME280;8335;42.646;23.380;2022-12-26T13:45:38;95211.34;;;11.19;61.91
8280;BME280;8335;42.646;23.380;2022-12-26T13:48:53;95208.94;;;11.16;61.80
8280;BME280;8335;42.646;23.380;2022-12-26T13:51:55;95215.88;;;11.12;62.29
8280;BME280;8335;42.646;23.380;2022-12-26T13:54:24;95215.78;;;11.15;62.65
8280;BME280;8335;42.646;23.380;2022-12-26T13:57:11;95216.38;;;11.20;62.93